Terminal Aerodrome Forecast
Issued by NWS St Louis, MO

Home | Current Version | Previous Version | Text Only | Print | Product List | Glossary On
Versions: 1 2 3 4 5 6 7 8 9 10 11 12 13 14 15 16 17 18 19 20 21 22 23 24 25 26 27
000
FTUS43 KLSX 272340
TAFSTL
TAF
KSTL 272340Z 2800/2906 17007KT P6SM VCTS SCT040CB BKN120
     FM280100 VRB04KT P6SM FEW050 BKN250
     FM281000 VRB03KT 5SM BR SCT250
     FM281400 VRB04KT P6SM SCT035 BKN250
     FM281900 12007KT P6SM SCT045 BKN250
     FM290100 VRB04KT P6SM FEW050 SCT250=

USA.gov is the U.S. government's official web portal to all federal, state and local government web resources and services.